Главная страница
METAR-TAF:

METAR-TAF

Аэропорты :

Нассау, Багамы

широта: 25-03N, долгота: 077-28W, высота над уровнем моря: 3 м

Текущие метеонаблюдения

Эта сводка был подготовлена 43 минут назад, в 22:00 UTC
Ветер 10 Узел от восточно-северо-восточный
Температура 26°C
Влажность 65%
Давление 1026 hPa
Видимость 10 км и более
Рассеянная облачность на высоте 2200 фута

METAR: MYNN 222200Z 07010KT 9999 BKN022 26/19 A3029

Время: 17:43 (22:43 UTC)

Прогноз

Эта сводка был подготовлена 6 часа и 13 минут назад, в 16:30 UTC
Прогноз действительный с 22-го 18 UTC до 23-го 18 UTC
Ветер 10 Узел от восточный с порывами до 20 Узел
Видимость 10 км и более
Отдельные облака на высоте 2000 фута

TAF: MYNN 221630Z 2218/2318 09010G20KT 9999 SCT020

Метеонаблюдения и прогнозы для более 4000 аэропортов (сводки METAR и TAF).

Имеющиеся станции представлены на карте желтыми и красными точками.

Чтобы увидеть название станции, наведите на нее мышь.

Затем щелкните, чтобы увидеть метеонаблюдения и метеопрогнозы.

Управление картой: чтобы увеличить масштаб, щелкните зеленые кнопки с черным крестиком; чтобы уменьшить масштаб, щелкните зеленую кнопку с тире; для просмотра соседних карт щелкайте зеленые стрелки.


METAR-TAF: